Time;durP1;ratioP1;P1;durP2;ratioP2;P2;SDS_P1;SDS_P2;PMS_P1;PMS_P2;Temp;Humidity;BMP_temperature;BMP_pressure;BME280_temperature;BME280_humidity;BME280_pressure;Samples;Min_cycle;Max_cycle;Signal;HPM_P1;HPM_P2
2023/01/29 00:00:48;;;;;;;9.40;3.60;;;;;;;-3.52;95.24;100452.54;104565;1294;22575;-31
2023/01/29 00:03:14;;;;;;;4.30;3.60;;;;;;;-3.54;94.96;100443.22;104567;1293;22637;-33
2023/01/29 00:05:40;;;;;;;4.60;2.90;;;;;;;-3.46;96.22;100442.95;104610;1302;24270;-33
2023/01/29 00:08:06;;;;;;;7.60;3.60;;;;;;;-3.44;96.28;100447.60;104610;1294;22560;-35
2023/01/29 00:10:32;;;;;;;9.30;5.20;;;;;;;-3.44;96.52;100453.22;104547;1294;23028;-38
2023/01/29 00:12:58;;;;;;;9.90;4.90;;;;;;;-3.44;96.48;100446.89;104583;1294;22666;-35
2023/01/29 00:15:23;;;;;;;7.40;6.10;;;;;;;-3.42;97.54;100450.13;104573;1295;24315;-34
2023/01/29 00:17:49;;;;;;;9.40;4.50;;;;;;;-3.33;98.25;100454.37;104609;1298;24464;-35
2023/01/29 00:20:15;;;;;;;7.30;4.80;;;;;;;-3.26;97.60;100451.17;104505;1288;22802;-30
2023/01/29 00:22:41;;;;;;;11.20;4.60;;;;;;;-3.38;96.70;100449.88;104563;1292;22813;-29
2023/01/29 00:25:08;;;;;;;12.00;5.90;;;;;;;-3.39;97.40;100448.21;104546;1294;22671;-30
2023/01/29 00:27:34;;;;;;;8.10;4.90;;;;;;;-3.40;97.03;100451.24;104509;1301;22808;-34
2023/01/29 00:32:28;;;;;;;8.60;5.50;;;;;;;-3.15;94.51;100445.83;104541;1304;22670;-34
2023/01/29 00:34:54;;;;;;;8.30;5.80;;;;;;;-3.43;93.88;100441.58;104680;1301;22637;-29
2023/01/29 00:37:20;;;;;;;9.90;4.00;;;;;;;-3.42;95.58;100439.96;104625;1293;22853;-31
2023/01/29 00:39:45;;;;;;;5.60;3.80;;;;;;;-3.35;95.14;100438.68;104534;1300;23176;-35
2023/01/29 00:49:38;;;;;;;9.90;6.30;;;;;;;-3.42;96.24;100434.16;104529;1298;23040;-30
2023/01/29 00:54:33;;;;;;;4.70;2.50;;;;;;;-3.40;97.23;100426.52;104527;1304;23091;-35
2023/01/29 00:56:59;;;;;;;8.20;5.30;;;;;;;-3.27;96.11;100425.98;104468;1294;22729;-34
2023/01/29 00:59:25;;;;;;;0.70;0.70;;;;;;;-3.39;96.58;100421.39;104629;1293;22671;-33
2023/01/29 01:04:20;;;;;;;5.70;2.80;;;;;;;-3.42;95.40;100410.34;104595;1304;22661;-31
2023/01/29 01:06:46;;;;;;;3.90;2.60;;;;;;;-3.38;95.24;100417.66;104500;1294;22684;-29
2023/01/29 01:11:41;;;;;;;11.60;5.70;;;;;;;-3.52;97.25;100402.98;104522;1294;23209;-34
2023/01/29 01:14:07;;;;;;;20.30;5.20;;;;;;;-3.49;98.33;100387.48;104585;1294;24427;-34
2023/01/29 01:16:33;;;;;;;8.80;6.10;;;;;;;-3.46;98.47;100390.97;104621;1291;22675;-34
2023/01/29 01:18:58;;;;;;;9.90;6.00;;;;;;;-3.40;98.80;100393.08;104494;1294;22631;-33
2023/01/29 01:21:24;;;;;;;12.50;5.50;;;;;;;-3.35;99.28;100389.17;104686;1304;22539;-33
2023/01/29 01:23:50;;;;;;;8.10;5.70;;;;;;;-3.30;99.04;100388.14;104434;1294;24306;-29
2023/01/29 01:26:17;;;;;;;10.60;6.80;;;;;;;-3.30;98.50;100387.81;104530;1293;24469;-34
2023/01/29 01:28:43;;;;;;;8.50;4.90;;;;;;;-3.30;98.92;100386.79;104611;1294;22841;-32
2023/01/29 01:31:10;;;;;;;11.60;5.80;;;;;;;-3.22;98.29;100384.04;104506;1291;22822;-29
2023/01/29 01:33:36;;;;;;;13.10;5.00;;;;;;;-3.26;98.70;100378.35;104551;1293;22588;-34
2023/01/29 01:36:03;;;;;;;9.90;5.60;;;;;;;-3.13;98.22;100365.50;104572;1295;22668;-34
2023/01/29 01:38:30;;;;;;;8.90;5.20;;;;;;;-3.20;96.76;100363.09;104515;1293;22664;-28
2023/01/29 01:40:56;;;;;;;5.10;3.50;;;;;;;-3.31;98.40;100361.04;104465;1295;22668;-30
2023/01/29 01:43:21;;;;;;;8.10;4.80;;;;;;;-3.35;98.61;100366.55;104413;1294;22994;-29
2023/01/29 01:45:48;;;;;;;10.30;4.90;;;;;;;-3.35;99.07;100369.32;104454;1295;22958;-34
2023/01/29 01:48:21;;;;;;;7.90;3.20;;;;;;;-3.31;99.25;100376.98;104609;1301;24238;-32
2023/01/29 01:50:56;;;;;;;6.50;4.20;;;;;;;-3.11;98.16;100383.45;104591;1292;23167;-39
2023/01/29 01:53:38;;;;;;;5.80;4.00;;;;;;;-3.26;97.85;100382.88;104572;1304;23157;-35
2023/01/29 01:56:06;;;;;;;8.50;4.80;;;;;;;-3.29;98.24;100383.05;104550;1294;25433;-34
2023/01/29 01:58:34;;;;;;;7.60;4.30;;;;;;;-3.32;98.44;100384.59;104478;1297;24258;-30
2023/01/29 02:01:00;;;;;;;7.20;4.10;;;;;;;-3.31;99.31;100386.48;104474;1287;22654;-29
2023/01/29 02:11:04;;;;;;;9.20;5.20;;;;;;;-3.11;99.17;100371.38;104579;1294;24295;-35
2023/01/29 02:13:30;;;;;;;9.60;5.30;;;;;;;-3.09;99.06;100371.09;104401;1302;23038;-31
2023/01/29 02:15:56;;;;;;;10.10;5.20;;;;;;;-3.03;98.03;100371.77;104477;1301;22820;-35
2023/01/29 02:18:21;;;;;;;6.70;4.70;;;;;;;-3.09;97.50;100380.02;104548;1294;25279;-35
2023/01/29 02:20:57;;;;;;;7.90;3.90;;;;;;;-3.17;98.17;100376.61;104631;1288;23039;-31
2023/01/29 02:23:46;;;;;;;6.50;4.00;;;;;;;-3.19;98.86;100380.92;104587;1294;22798;-29
2023/01/29 02:26:28;;;;;;;5.30;3.40;;;;;;;-3.13;99.86;100382.16;104472;1294;22820;-35
2023/01/29 02:31:40;;;;;;;3.90;2.00;;;;;;;-3.08;98.86;100368.92;104533;1291;22689;-30
2023/01/29 02:34:23;;;;;;;5.30;3.20;;;;;;;-3.13;99.84;100364.48;104595;1294;23165;-30
2023/01/29 02:37:03;;;;;;;6.60;3.30;;;;;;;-3.13;99.77;100372.38;104463;1304;22679;-35
2023/01/29 02:39:35;;;;;;;6.30;3.70;;;;;;;-3.12;99.69;100376.99;104534;1291;22786;-34
2023/01/29 02:42:11;;;;;;;10.80;5.30;;;;;;;-3.12;99.98;100374.05;104699;1294;22773;-30
2023/01/29 02:44:40;;;;;;;4.80;2.90;;;;;;;-3.08;100.00;100375.75;104515;1294;22673;-34
2023/01/29 02:47:16;;;;;;;5.30;3.40;;;;;;;-3.02;99.95;100374.51;104522;1304;23042;-34
2023/01/29 02:49:47;;;;;;;4.00;2.90;;;;;;;-3.12;100.00;100378.04;104510;1304;25266;-29
2023/01/29 02:52:22;;;;;;;7.50;3.50;;;;;;;-3.07;100.00;100382.48;104460;1304;22666;-30
2023/01/29 02:55:01;;;;;;;2.30;1.90;;;;;;;-3.09;100.00;100385.96;104471;1294;22955;-35
2023/01/29 02:57:30;;;;;;;6.80;2.40;;;;;;;-3.16;100.00;100385.11;104571;1294;22726;-30
2023/01/29 03:00:14;;;;;;;21.60;4.30;;;;;;;-3.10;100.00;100379.20;104570;1301;23039;-34
2023/01/29 03:03:05;;;;;;;2.90;1.60;;;;;;;-3.06;100.00;100380.89;104606;1288;23003;-29
2023/01/29 03:05:43;;;;;;;7.20;3.90;;;;;;;-3.08;100.00;100376.09;104671;1289;22679;-34
2023/01/29 03:08:15;;;;;;;6.30;3.10;;;;;;;-3.19;100.00;100372.13;104474;1289;22560;-34
2023/01/29 03:10:56;;;;;;;3.80;2.10;;;;;;;-3.15;100.00;100372.48;104472;1298;23180;-34
2023/01/29 03:13:29;;;;;;;3.60;2.10;;;;;;;-3.10;100.00;100369.89;104553;1295;22686;-30
2023/01/29 03:16:01;;;;;;;11.70;5.90;;;;;;;-2.91;100.00;100369.17;104578;1294;22565;-34
2023/01/29 03:18:29;;;;;;;6.90;3.70;;;;;;;-3.04;100.00;100366.42;104551;1289;22578;-29
2023/01/29 03:20:57;;;;;;;7.50;4.70;;;;;;;-3.02;100.00;100360.18;104639;1291;25386;-29
2023/01/29 03:33:26;;;;;;;10.00;3.40;;;;;;;-3.06;100.00;100360.93;104558;1294;22667;-33
2023/01/29 03:35:59;;;;;;;5.90;3.20;;;;;;;-2.91;100.00;100356.36;104467;1291;23958;-29
2023/01/29 03:38:28;;;;;;;7.20;4.30;;;;;;;-3.04;100.00;100354.65;104616;1293;22810;-29
2023/01/29 03:40:58;;;;;;;7.50;3.40;;;;;;;-3.05;100.00;100355.76;104446;1292;23146;-29
2023/01/29 03:43:45;;;;;;;5.20;3.30;;;;;;;-2.97;100.00;100354.81;104541;1294;22796;-29
2023/01/29 03:46:20;;;;;;;18.10;4.20;;;;;;;-2.94;100.00;100353.07;104469;1305;22679;-33
2023/01/29 03:49:11;;;;;;;4.50;3.60;;;;;;;-2.82;100.00;100347.47;104532;1291;22662;-28
2023/01/29 03:51:42;;;;;;;8.10;4.40;;;;;;;-2.98;100.00;100345.23;104532;1291;22680;-33
2023/01/29 03:54:31;;;;;;;2.60;2.20;;;;;;;-3.11;100.00;100339.48;104599;1293;23027;-29
2023/01/29 03:57:19;;;;;;;3.00;2.00;;;;;;;-2.92;100.00;100333.83;104533;1294;25442;-29
2023/01/29 04:00:01;;;;;;;6.40;1.90;;;;;;;-3.01;100.00;100332.58;104529;1297;22670;-38
2023/01/29 04:02:29;;;;;;;4.20;2.60;;;;;;;-3.06;100.00;100336.91;104566;1304;24258;-34
2023/01/29 04:04:57;;;;;;;5.50;3.70;;;;;;;-3.06;100.00;100335.67;104544;1294;22675;-28
2023/01/29 04:07:23;;;;;;;6.20;2.80;;;;;;;-3.18;100.00;100340.41;104528;1304;22811;-31
2023/01/29 04:09:51;;;;;;;4.20;2.40;;;;;;;-3.03;100.00;100339.87;104586;1294;22655;-31
2023/01/29 04:12:23;;;;;;;2.70;1.60;;;;;;;-3.04;100.00;100335.56;104540;1291;25013;-34
2023/01/29 04:14:49;;;;;;;7.20;3.30;;;;;;;-3.12;100.00;100330.59;104516;1291;22833;-30
2023/01/29 04:17:17;;;;;;;5.00;2.50;;;;;;;-3.09;100.00;100331.64;104536;1304;25575;-34
2023/01/29 04:19:43;;;;;;;6.70;3.10;;;;;;;-3.09;100.00;100332.52;104565;1291;23032;-30
2023/01/29 04:22:14;;;;;;;4.70;3.20;;;;;;;-3.17;100.00;100327.55;104538;1294;24315;-29
2023/01/29 04:24:40;;;;;;;5.00;2.30;;;;;;;-3.12;100.00;100330.77;104526;1294;23955;-30
2023/01/29 04:27:19;;;;;;;16.90;3.30;;;;;;;-3.08;100.00;100332.98;104600;1294;23043;-34
2023/01/29 04:30:03;;;;;;;10.00;4.00;;;;;;;-3.12;100.00;100334.77;104639;1304;24481;-29
2023/01/29 04:32:53;;;;;;;6.50;4.20;;;;;;;-3.17;100.00;100331.06;104518;1293;22563;-30
2023/01/29 04:35:42;;;;;;;12.20;3.20;;;;;;;-3.17;100.00;100323.52;104560;1294;22806;-35
2023/01/29 05:15:37;;;;;;;9.60;4.40;;;;;;;-3.41;100.00;100301.21;104358;1296;557476;-30
2023/01/29 05:18:07;;;;;;;7.00;3.10;;;;;;;-3.27;100.00;100296.77;104205;1302;476404;-29
2023/01/29 05:20:34;;;;;;;4.60;2.80;;;;;;;-3.26;100.00;100291.45;104701;1301;22682;-30
2023/01/29 05:23:00;;;;;;;26.70;5.60;;;;;;;-3.38;100.00;100288.78;104675;1302;22673;-34
2023/01/29 05:25:29;;;;;;;10.20;4.30;;;;;;;-3.33;100.00;100290.27;104746;1303;24237;-30
2023/01/29 05:30:25;;;;;;;4.60;3.40;;;;;;;-3.32;100.00;100286.21;104742;1280;22583;-30
2023/01/29 05:32:50;;;;;;;8.90;4.70;;;;;;;-3.40;100.00;100279.65;104841;1293;22657;-29
2023/01/29 05:35:16;;;;;;;10.80;4.30;;;;;;;-3.47;100.00;100281.41;104696;1301;22829;-30
2023/01/29 05:37:42;;;;;;;13.80;5.50;;;;;;;-3.50;100.00;100277.40;104769;1292;22823;-30
2023/01/29 05:40:08;;;;;;;7.30;2.80;;;;;;;-3.49;100.00;100278.60;104768;1293;24303;-29
2023/01/29 05:42:34;;;;;;;6.90;4.50;;;;;;;-3.50;100.00;100279.85;104771;1303;24302;-33
2023/01/29 05:45:05;;;;;;;11.80;4.20;;;;;;;-3.41;100.00;100282.50;104726;1292;22802;-33
2023/01/29 05:47:31;;;;;;;8.60;4.40;;;;;;;-3.55;100.00;100279.26;104834;1292;24428;-29
2023/01/29 05:49:56;;;;;;;8.90;3.40;;;;;;;-3.57;100.00;100278.48;104649;1303;22685;-33
2023/01/29 05:52:22;;;;;;;5.60;4.20;;;;;;;-3.47;100.00;100285.81;104796;1292;23165;-29
2023/01/29 05:54:48;;;;;;;4.90;3.40;;;;;;;-3.36;100.00;100289.20;104638;1295;23152;-31
2023/01/29 05:57:14;;;;;;;8.50;2.90;;;;;;;-3.31;100.00;100288.61;104705;1289;23180;-29
2023/01/29 05:59:39;;;;;;;6.40;2.40;;;;;;;-3.35;100.00;100286.90;104785;1303;22632;-30
2023/01/29 06:02:05;;;;;;;3.70;3.00;;;;;;;-3.40;100.00;100288.23;104781;1302;24319;-30
2023/01/29 06:04:31;;;;;;;5.30;3.00;;;;;;;-3.41;100.00;100287.06;104804;1292;22665;-29
2023/01/29 06:06:56;;;;;;;8.40;4.50;;;;;;;-3.40;100.00;100289.11;104847;1303;24290;-28
2023/01/29 06:09:22;;;;;;;3.90;3.20;;;;;;;-3.38;100.00;100300.52;104769;1302;23029;-33
2023/01/29 06:11:48;;;;;;;7.00;4.50;;;;;;;-3.30;100.00;100297.98;104628;1295;22781;-34
2023/01/29 06:14:13;;;;;;;13.80;4.70;;;;;;;-3.33;100.00;100298.16;104563;1295;22563;-29
2023/01/29 06:16:39;;;;;;;11.20;5.00;;;;;;;-3.34;100.00;100302.90;104771;1296;22670;-34
2023/01/29 06:19:05;;;;;;;4.00;3.00;;;;;;;-3.27;100.00;100303.95;104784;1292;23176;-34
2023/01/29 06:21:31;;;;;;;7.80;4.90;;;;;;;-3.19;100.00;100309.99;104599;1292;22790;-34
2023/01/29 06:23:57;;;;;;;5.30;2.60;;;;;;;-3.27;100.00;100305.53;104709;1292;24321;-29
2023/01/29 06:26:23;;;;;;;7.30;3.50;;;;;;;-3.26;100.00;100304.09;104774;1292;22666;-34
2023/01/29 06:28:49;;;;;;;9.00;4.50;;;;;;;-3.26;100.00;100301.44;104792;1292;22792;-35
2023/01/29 06:31:15;;;;;;;9.60;3.70;;;;;;;-3.25;100.00;100294.89;104719;1292;22662;-31
2023/01/29 06:33:40;;;;;;;9.20;4.20;;;;;;;-3.22;100.00;100299.32;104702;1294;23038;-33
2023/01/29 06:36:06;;;;;;;4.60;3.40;;;;;;;-3.24;100.00;100301.68;104699;1292;24297;-29
2023/01/29 06:38:32;;;;;;;1.90;1.30;;;;;;;-3.24;100.00;100303.45;104702;1292;23029;-32
2023/01/29 06:40:58;;;;;;;3.10;2.60;;;;;;;-3.26;100.00;100299.88;104760;1304;23026;-29
2023/01/29 06:43:24;;;;;;;8.70;4.00;;;;;;;-3.11;100.00;100293.75;104846;1304;23029;-33
2023/01/29 06:45:51;;;;;;;1.60;1.30;;;;;;;-3.17;100.00;100291.65;104690;1292;22629;-35
2023/01/29 06:48:17;;;;;;;4.60;2.70;;;;;;;-3.15;100.00;100296.98;104571;1304;24195;-30
2023/01/29 06:50:43;;;;;;;5.60;3.30;;;;;;;-3.13;100.00;100304.54;104648;1292;22803;-29
2023/01/29 06:53:09;;;;;;;7.40;3.40;;;;;;;-3.15;100.00;100308.16;104737;1304;23028;-34
2023/01/29 06:55:34;;;;;;;3.50;1.80;;;;;;;-3.13;100.00;100310.48;104594;1295;24803;-34
2023/01/29 06:58:05;;;;;;;7.00;3.60;;;;;;;-3.18;100.00;100311.34;104712;1293;22579;-30
2023/01/29 07:00:31;;;;;;;7.00;3.50;;;;;;;-3.13;100.00;100312.98;104708;1292;24317;-34
2023/01/29 07:02:57;;;;;;;2.20;1.80;;;;;;;-2.99;100.00;100310.41;104653;1301;22786;-33
2023/01/29 07:05:23;;;;;;;7.30;3.60;;;;;;;-3.06;100.00;100306.42;104620;1304;24230;-35
2023/01/29 07:07:49;;;;;;;7.70;3.60;;;;;;;-3.09;100.00;100307.82;104793;1292;24298;-30
2023/01/29 07:10:15;;;;;;;4.10;1.90;;;;;;;-3.04;100.00;100312.80;104744;1292;22657;-30
2023/01/29 07:12:40;;;;;;;7.30;3.30;;;;;;;-3.02;100.00;100321.98;104707;1289;22789;-35
2023/01/29 07:15:07;;;;;;;9.50;2.10;;;;;;;-2.98;100.00;100320.68;104671;1295;23022;-34
2023/01/29 07:17:32;;;;;;;11.10;5.40;;;;;;;-2.85;100.00;100323.45;104677;1292;24304;-33
2023/01/29 07:19:59;;;;;;;18.80;8.80;;;;;;;-2.90;100.00;100326.38;104789;1292;26015;-34
2023/01/29 07:22:25;;;;;;;5.60;2.30;;;;;;;-2.92;100.00;100325.62;104640;1292;23039;-35
2023/01/29 07:24:50;;;;;;;12.70;9.00;;;;;;;-2.89;100.00;100330.35;104646;1295;25365;-31
2023/01/29 07:27:16;;;;;;;38.50;17.50;;;;;;;-2.76;99.14;100328.89;104629;1283;25314;-30
2023/01/29 07:29:42;;;;;;;32.90;16.00;;;;;;;-2.55;97.50;100333.46;104556;1295;22666;-30
2023/01/29 07:32:07;;;;;;;20.80;10.20;;;;;;;-2.71;97.94;100336.47;104672;1292;24320;-35
2023/01/29 07:34:33;;;;;;;16.30;7.50;;;;;;;-2.80;98.12;100339.64;104767;1293;22699;-33
2023/01/29 07:36:59;;;;;;;9.90;3.70;;;;;;;-2.73;98.41;100341.33;104687;1303;24445;-29
2023/01/29 07:39:25;;;;;;;44.10;19.50;;;;;;;-2.54;96.69;100343.05;104892;1289;24390;-29
2023/01/29 07:41:50;;;;;;;3.50;3.00;;;;;;;-2.72;96.72;100347.77;104794;1289;23265;-33
2023/01/29 07:44:16;;;;;;;8.30;2.90;;;;;;;-2.60;96.51;100352.66;104770;1292;22802;-29
2023/01/29 07:46:41;;;;;;;4.90;3.60;;;;;;;-2.40;95.35;100351.30;104710;1304;24500;-28
2023/01/29 07:49:07;;;;;;;9.90;3.30;;;;;;;-2.53;95.23;100349.25;104643;1292;23483;-32
2023/01/29 07:51:33;;;;;;;3.90;2.70;;;;;;;-2.44;94.12;100347.20;104648;1292;22663;-33
2023/01/29 07:53:59;;;;;;;3.30;2.30;;;;;;;-2.57;94.83;100350.42;104706;1289;22782;-33
2023/01/29 07:56:24;;;;;;;7.10;3.70;;;;;;;-2.71;96.10;100352.40;104618;1292;23028;-29
2023/01/29 07:58:50;;;;;;;4.40;2.40;;;;;;;-2.74;96.68;100349.45;104660;1304;23045;-30
2023/01/29 08:01:16;;;;;;;4.70;2.80;;;;;;;-2.79;98.00;100349.05;104644;1304;22642;-30
2023/01/29 08:03:42;;;;;;;3.80;2.90;;;;;;;-2.70;98.18;100351.51;104509;1304;22812;-34
2023/01/29 08:06:08;;;;;;;7.40;4.30;;;;;;;-2.80;98.58;100351.71;104743;1292;22660;-34
2023/01/29 08:08:34;;;;;;;7.90;4.60;;;;;;;-2.55;97.59;100350.11;104632;1295;22659;-35
2023/01/29 08:11:01;;;;;;;4.50;2.70;;;;;;;-2.74;97.82;100346.52;104660;1304;22718;-35
2023/01/29 08:13:27;;;;;;;6.30;4.30;;;;;;;-2.67;97.64;100340.27;104706;1289;24807;-30
2023/01/29 08:15:53;;;;;;;3.90;2.30;;;;;;;-2.61;97.05;100335.90;104729;1304;22566;-35
2023/01/29 08:18:18;;;;;;;5.00;3.50;;;;;;;-2.69;97.54;100338.11;104715;1302;25447;-30
2023/01/29 08:20:45;;;;;;;7.10;2.70;;;;;;;-2.64;97.84;100328.52;104729;1304;22672;-30
2023/01/29 08:23:13;;;;;;;6.50;3.80;;;;;;;-2.58;97.63;100325.71;104900;1292;25390;-30
2023/01/29 08:25:39;;;;;;;3.30;2.10;;;;;;;-2.37;97.06;100318.02;104597;1302;22637;-29
2023/01/29 08:28:04;;;;;;;3.80;2.30;;;;;;;-2.41;95.17;100318.04;104759;1291;24350;-33
2023/01/29 08:30:32;;;;;;;1.00;0.80;;;;;;;-2.43;95.35;100310.30;104659;1304;24813;-33
2023/01/29 08:32:57;;;;;;;4.20;3.00;;;;;;;-2.34;95.79;100308.53;104682;1292;22659;-33
2023/01/29 08:35:23;;;;;;;4.10;3.10;;;;;;;-2.28;95.04;100309.25;104613;1304;22791;-33
2023/01/29 08:37:53;;;;;;;4.20;2.30;;;;;;;-2.25;94.15;100308.20;104745;1292;24265;-30
2023/01/29 08:41:31;;;;;;;5.50;3.30;;;;;;;-2.14;93.06;100300.13;103447;1314;545396;-30
2023/01/29 08:43:59;;;;;;;3.70;1.50;;;;;;;-2.17;92.72;100297.65;103584;1314;22676;-29
2023/01/29 08:46:24;;;;;;;3.10;2.20;;;;;;;-2.10;91.92;100298.32;103721;1314;23171;-34
2023/01/29 08:48:50;;;;;;;4.00;2.90;;;;;;;-2.19;91.34;100301.67;103614;1311;23164;-30
2023/01/29 08:51:16;;;;;;;2.70;2.30;;;;;;;-2.13;91.25;100302.52;103614;1304;22685;-32
2023/01/29 08:53:42;;;;;;;4.80;3.40;;;;;;;-2.16;92.16;100311.85;103610;1314;23047;-33
2023/01/29 08:56:07;;;;;;;3.30;1.50;;;;;;;-1.85;92.61;100306.39;103367;1306;568130;-34
2023/01/29 08:58:33;;;;;;;3.40;2.40;;;;;;;-1.67;89.90;100297.71;103908;1305;23037;-32
2023/01/29 09:01:07;;;;;;;3.30;2.20;;;;;;;-1.53;88.92;100298.42;103819;1301;22667;-34
2023/01/29 09:03:32;;;;;;;3.80;1.80;;;;;;;-1.37;88.00;100294.42;103770;1302;22790;-29
2023/01/29 09:05:59;;;;;;;4.80;2.10;;;;;;;-1.42;87.62;100298.09;103916;1309;23186;-29
2023/01/29 09:08:25;;;;;;;4.10;2.60;;;;;;;-1.26;86.25;100297.05;103861;1311;24344;-30
2023/01/29 09:10:50;;;;;;;6.40;3.60;;;;;;;-1.37;86.61;100296.50;103907;1311;24313;-29
2023/01/29 09:13:16;;;;;;;4.20;3.00;;;;;;;-1.66;87.57;100294.36;103797;1311;23039;-29
2023/01/29 09:15:42;;;;;;;4.60;3.00;;;;;;;-1.57;87.37;100290.94;103927;1309;22808;-29
2023/01/29 09:18:08;;;;;;;3.40;1.80;;;;;;;-1.58;87.65;100281.55;103826;1308;22669;-33
2023/01/29 09:20:36;;;;;;;5.40;4.10;;;;;;;-1.39;87.59;100276.81;103918;1308;22622;-33
2023/01/29 09:23:06;;;;;;;5.80;3.10;;;;;;;-1.47;88.47;100275.94;103854;1310;22785;-34
2023/01/29 09:25:31;;;;;;;9.50;4.60;;;;;;;-1.36;87.96;100272.42;103875;1302;22675;-34
2023/01/29 09:27:57;;;;;;;12.50;5.00;;;;;;;-1.36;87.08;100278.35;103955;1301;23182;-29
2023/01/29 09:30:23;;;;;;;7.80;4.00;;;;;;;-1.14;86.06;100274.13;103878;1309;22803;-31
2023/01/29 09:32:48;;;;;;;5.90;3.20;;;;;;;-1.34;86.69;100269.83;103962;1302;22675;-30
2023/01/29 09:35:14;;;;;;;6.20;3.70;;;;;;;-1.32;86.63;100267.42;103841;1311;22579;-34
2023/01/29 09:37:40;;;;;;;5.00;3.20;;;;;;;-1.22;86.30;100266.56;103881;1301;25374;-30
2023/01/29 09:40:06;;;;;;;5.60;3.90;;;;;;;-1.08;85.15;100258.48;103920;1300;22650;-30
2023/01/29 09:42:47;;;;;;;5.10;2.50;;;;;;;-0.91;85.51;100257.13;103834;1311;24272;-34
2023/01/29 09:45:14;;;;;;;19.80;6.30;;;;;;;-0.71;83.72;100249.85;103742;1301;22668;-29
2023/01/29 09:47:40;;;;;;;12.40;6.00;;;;;;;-0.67;82.26;100249.53;103813;1301;24237;-33
2023/01/29 09:50:08;;;;;;;7.80;4.40;;;;;;;-0.75;81.76;100243.75;103899;1308;22563;-34
2023/01/29 09:52:36;;;;;;;5.90;4.20;;;;;;;-0.45;80.57;100242.45;103880;1309;24350;-30
2023/01/29 09:55:20;;;;;;;6.30;3.40;;;;;;;-0.79;81.81;100238.58;103839;1302;22809;-34
2023/01/29 09:57:54;;;;;;;4.20;3.60;;;;;;;-0.91;82.83;100231.65;103934;1305;22666;-34
2023/01/29 10:00:21;;;;;;;;;;;;;;;-0.83;83.63;100223.36;103835;1301;24492;-31
2023/01/29 10:03:10;;;;;;;3.90;2.90;;;;;;;-0.60;82.62;100224.45;103704;1312;22773;-30
2023/01/29 10:05:47;;;;;;;8.70;4.30;;;;;;;-0.67;82.20;100222.81;103742;1312;23103;-30
2023/01/29 10:08:28;;;;;;;3.60;2.20;;;;;;;-0.38;82.58;100215.23;103707;1311;22677;-31
2023/01/29 10:11:04;;;;;;;4.10;2.40;;;;;;;-0.41;81.52;100208.55;103961;1309;22755;-30
2023/01/29 10:13:50;;;;;;;9.70;2.20;;;;;;;-0.14;80.08;100206.66;103808;1312;24391;-33
2023/01/29 10:16:27;;;;;;;7.60;3.40;;;;;;;-0.08;80.06;100204.50;103791;1306;22641;-35
2023/01/29 10:19:15;;;;;;;4.30;2.70;;;;;;;0.01;79.62;100198.40;103823;1300;22576;-29
2023/01/29 10:22:12;;;;;;;5.90;3.80;;;;;;;0.16;79.38;100190.10;103779;1312;22582;-35
2023/01/29 10:24:50;;;;;;;5.70;4.10;;;;;;;0.48;78.08;100186.00;103855;1312;23038;-35
2023/01/29 10:27:17;;;;;;;5.30;4.40;;;;;;;0.42;77.58;100189.10;103770;1311;22750;-32
2023/01/29 10:29:44;;;;;;;4.80;3.10;;;;;;;0.63;77.62;100183.83;103848;1301;23304;-33
2023/01/29 10:32:17;;;;;;;4.10;3.20;;;;;;;1.04;73.38;100183.02;103761;1301;23054;-34
2023/01/29 10:34:44;;;;;;;;;;;;;;;0.25;75.43;100183.94;103710;1309;23042;-29
2023/01/29 10:37:14;;;;;;;;;;;;;;;-0.19;77.71;100173.78;103737;1312;22549;-34
2023/01/29 10:39:40;;;;;;;3.80;2.80;;;;;;;-0.23;78.88;100177.00;103709;1302;22538;-36
2023/01/29 10:42:23;;;;;;;3.80;2.30;;;;;;;-0.08;78.58;100176.48;103847;1312;23050;-32
2023/01/29 10:45:18;;;;;;;2.90;2.40;;;;;;;-0.09;77.34;100172.34;103825;1308;24243;-35
2023/01/29 10:48:03;;;;;;;4.60;2.80;;;;;;;-0.08;77.41;100166.63;103745;1302;23043;-35
2023/01/29 10:50:47;;;;;;;4.50;2.60;;;;;;;-0.51;79.57;100165.05;103889;1301;22685;-31
2023/01/29 10:53:21;;;;;;;5.40;3.30;;;;;;;-0.51;79.87;100165.09;103866;1305;22686;-34
2023/01/29 10:56:11;;;;;;;4.80;3.10;;;;;;;-0.10;79.08;100162.93;103921;1298;22630;-35
2023/01/29 10:58:48;;;;;;;9.00;3.80;;;;;;;-0.37;79.71;100160.56;103889;1302;23314;-33
2023/01/29 11:01:14;;;;;;;3.00;2.10;;;;;;;-0.38;79.76;100162.92;103964;1308;24416;-33
2023/01/29 11:03:39;;;;;;;10.50;2.60;;;;;;;-0.42;80.24;100158.48;103933;1312;23014;-30
2023/01/29 11:47:23;;;;;;;7.30;3.80;;;;;;;-0.10;80.46;100097.90;104141;1299;557632;-29
2023/01/29 11:49:51;;;;;;;3.40;2.20;;;;;;;-0.10;79.44;100095.84;104144;1304;434202;-34
2023/01/29 11:52:20;;;;;;;3.90;2.20;;;;;;;-0.05;79.47;100098.45;104522;1295;23187;-34
2023/01/29 11:54:52;;;;;;;5.80;3.40;;;;;;;0.02;79.54;100089.91;104534;1295;22809;-29
2023/01/29 11:57:33;;;;;;;7.60;4.50;;;;;;;0.09;78.26;100086.14;104500;1292;23162;-31
2023/01/29 12:00:01;;;;;;;9.50;5.80;;;;;;;-0.08;78.23;100081.64;104580;1289;26539;-34
2023/01/29 12:02:36;;;;;;;6.60;3.60;;;;;;;-0.01;79.86;100078.48;104630;1295;24301;-33
2023/01/29 12:05:05;;;;;;;6.10;3.70;;;;;;;0.22;79.59;100074.32;104574;1295;23037;-30
2023/01/29 12:07:31;;;;;;;15.60;3.90;;;;;;;0.32;79.34;100072.34;104554;1295;22575;-29
2023/01/29 12:09:58;;;;;;;10.50;4.50;;;;;;;0.70;78.09;100065.94;104466;1305;22997;-34
2023/01/29 12:12:28;;;;;;;5.80;3.20;;;;;;;0.52;77.74;100065.48;104588;1305;24210;-33
2023/01/29 12:15:18;;;;;;;8.00;4.70;;;;;;;0.31;78.75;100059.01;104567;1298;22605;-33
2023/01/29 12:17:49;;;;;;;6.40;3.40;;;;;;;0.48;78.17;100054.40;104426;1305;24214;-29
2023/01/29 12:20:19;;;;;;;4.40;3.30;;;;;;;0.38;78.74;100053.73;104599;1295;22947;-35
2023/01/29 12:22:49;;;;;;;5.50;3.80;;;;;;;0.11;80.76;100049.92;104553;1293;24795;-35
2023/01/29 12:25:28;;;;;;;9.10;4.70;;;;;;;-0.04;80.58;100042.24;104513;1302;24422;-33
2023/01/29 12:28:05;;;;;;;10.60;4.70;;;;;;;-0.07;80.95;100038.61;104661;1295;23013;-33
2023/01/29 12:30:37;;;;;;;5.70;3.40;;;;;;;-0.14;81.11;100032.94;104482;1295;24432;-31
2023/01/29 12:33:16;;;;;;;10.10;4.60;;;;;;;-0.18;82.12;100033.59;104548;1294;22593;-29
2023/01/29 12:35:45;;;;;;;12.20;5.60;;;;;;;-0.00;81.82;100031.92;104502;1295;22577;-31
2023/01/29 12:38:17;;;;;;;10.30;4.60;;;;;;;0.05;81.15;100023.23;104539;1305;23182;-29
2023/01/29 12:40:50;;;;;;;5.50;2.90;;;;;;;0.17;80.68;100019.55;104607;1294;24351;-34
2023/01/29 12:43:18;;;;;;;7.20;3.20;;;;;;;-0.23;81.89;100014.41;104625;1291;22809;-35
2023/01/29 12:45:46;;;;;;;8.20;5.00;;;;;;;-0.37;83.22;100013.33;104398;1292;24387;-36
2023/01/29 12:48:14;;;;;;;6.80;5.80;;;;;;;-0.17;83.61;100004.31;104518;1296;23044;-31
2023/01/29 12:50:40;;;;;;;9.30;5.60;;;;;;;0.07;82.07;100003.00;104523;1295;24288;-32
2023/01/29 12:53:31;;;;;;;5.50;3.30;;;;;;;0.05;82.43;100001.08;104554;1305;24420;-30
2023/01/29 12:55:58;;;;;;;4.90;3.40;;;;;;;0.24;81.07;99995.23;104574;1291;24181;-29
2023/01/29 12:58:48;;;;;;;8.10;5.20;;;;;;;0.01;82.72;99997.64;104595;1295;23134;-29
2023/01/29 13:01:19;;;;;;;10.90;4.00;;;;;;;-0.09;83.29;99996.27;104517;1294;23040;-30
2023/01/29 13:04:05;;;;;;;8.30;5.10;;;;;;;0.13;83.24;99993.25;104597;1295;24385;-34
2023/01/29 13:06:48;;;;;;;4.80;3.80;;;;;;;0.44;81.55;99990.19;104513;1294;24801;-35
2023/01/29 13:09:17;;;;;;;6.20;4.10;;;;;;;0.25;81.23;99988.65;104545;1295;24302;-34
2023/01/29 13:11:51;;;;;;;8.10;5.80;;;;;;;0.45;80.48;99979.75;104564;1301;24236;-35
2023/01/29 13:14:23;;;;;;;13.70;5.40;;;;;;;0.28;80.79;99984.02;104537;1295;24382;-35
2023/01/29 13:16:51;;;;;;;9.00;5.20;;;;;;;0.25;82.12;99983.19;104643;1295;22578;-33
2023/01/29 13:19:34;;;;;;;7.70;5.10;;;;;;;0.12;81.89;99982.45;104558;1305;24308;-30
2023/01/29 13:22:01;;;;;;;4.80;4.20;;;;;;;0.09;82.40;99980.91;104590;1295;23084;-29
2023/01/29 13:24:38;;;;;;;7.90;5.80;;;;;;;0.04;82.34;99976.70;104433;1295;24225;-33
2023/01/29 13:27:03;;;;;;;8.60;4.90;;;;;;;-0.08;83.02;99979.66;104450;1305;23168;-35